LSZA Informações do Aeroporto

Informações da Pista
Pista 01 Comprimento 4429 ft Largura 98 ft
Elevação 896 ft Limite 361 ft Heading 19
Pista 19 Comprimento 4429 ft Largura 98 ft
Elevação 915 ft Limite 672 ft Heading 199
Frequências do Aeroporto
Tipo ATIS Nome ATIS Frequência 121.175 MHZ
Tipo GND Nome GND Frequência 121.775 MHZ
Tipo TWR Nome TWR Frequência 120.25 MHZ
Navaids do Aeroporto
Informações meteorológicas do aeroporto e NOTAM
ADDS - METARS form results

(0208 UTC 27 June 2019)
Data provider http://aviationweather.gov/metar/data/
 
METAR text: LSZA 270150Z AUTO VRB01KT CAVOK 23/22 Q1023
Conditions at: LSZA (LUGANO (PVT/AUT), CH) observed 0150 UTC 27 June 2019
Temperature: 23.0°C (73°F)
Dewpoint: 22.0°C (72°F) [RH = 94%]
Pressure (altimeter): 30.21 inches Hg (1023.0 mb)
Winds: variable direction winds at 1 MPH (1 knots; 0.5 m/s)
Visibility: 6 or more miles (10+ km)
Ceiling: ceiling and visibility are OK
Clouds: unknown
Weather: no significant weather observed at this time

METAR text: LSZA 270120Z AUTO VRB01KT CAVOK 24/22 Q1023
Conditions at: LSZA (LUGANO (PVT/AUT), CH) observed 0120 UTC 27 June 2019
Temperature: 24.0°C (75°F)
Dewpoint: 22.0°C (72°F) [RH = 89%]
Pressure (altimeter): 30.21 inches Hg (1023.0 mb)
Winds: variable direction winds at 1 MPH (1 knots; 0.5 m/s)
Visibility: 6 or more miles (10+ km)
Ceiling: ceiling and visibility are OK
Clouds: unknown
Weather: no significant weather observed at this time

Forecast for: LSZA (LUGANO (PVT/AUT), CH)
Text: TAF LSZA 261425Z 2615/2624 20006KT CAVOK
Forecast period: 1500 UTC 26 June 2019 to 0000 UTC 27 June 2019
Forecast type: FROM: standard forecast or significant change
Winds: from the SSW (200 degrees) at 7 MPH (6 knots; 3.1 m/s)
Visibility: 6 or more miles 10+ km)
Ceiling: unknown
Clouds: missing
Weather: NSW  (no significant weather)